sensor_id;sensor_type;location;lat;lon;timestamp;temperature;humidity
15700;DHT22;7950;42.744;23.174;2023-05-07T00:02:21;8.50;99.90
15700;DHT22;7950;42.744;23.174;2023-05-07T00:04:51;8.40;99.90
15700;DHT22;7950;42.744;23.174;2023-05-07T00:07:19;8.40;99.90
15700;DHT22;7950;42.744;23.174;2023-05-07T00:09:54;8.30;99.90
15700;DHT22;7950;42.744;23.174;2023-05-07T00:12:22;8.30;99.90
15700;DHT22;7950;42.744;23.174;2023-05-07T00:14:51;8.20;99.90
15700;DHT22;7950;42.744;23.174;2023-05-07T00:17:19;8.20;99.90
15700;DHT22;7950;42.744;23.174;2023-05-07T00:19:48;8.20;99.90
15700;DHT22;7950;42.744;23.174;2023-05-07T00:22:18;8.20;99.90
15700;DHT22;7950;42.744;23.174;2023-05-07T00:24:46;8.10;99.90
15700;DHT22;7950;42.744;23.174;2023-05-07T00:27:15;8.10;99.90
15700;DHT22;7950;42.744;23.174;2023-05-07T00:29:44;8.10;99.90
15700;DHT22;7950;42.744;23.174;2023-05-07T00:32:12;8.10;99.90
15700;DHT22;7950;42.744;23.174;2023-05-07T00:34:42;8.10;99.90
15700;DHT22;7950;42.744;23.174;2023-05-07T00:37:11;8.00;99.90
15700;DHT22;7950;42.744;23.174;2023-05-07T00:39:41;8.00;99.90
15700;DHT22;7950;42.744;23.174;2023-05-07T00:42:10;8.00;99.90
15700;DHT22;7950;42.744;23.174;2023-05-07T00:44:38;8.00;99.90
15700;DHT22;7950;42.744;23.174;2023-05-07T00:47:07;8.00;99.90
15700;DHT22;7950;42.744;23.174;2023-05-07T00:49:38;8.00;99.90
15700;DHT22;7950;42.744;23.174;2023-05-07T00:52:12;7.90;99.90
15700;DHT22;7950;42.744;23.174;2023-05-07T00:54:43;7.80;99.90
15700;DHT22;7950;42.744;23.174;2023-05-07T00:57:12;7.70;99.90
15700;DHT22;7950;42.744;23.174;2023-05-07T00:59:41;7.70;99.90
15700;DHT22;7950;42.744;23.174;2023-05-07T01:02:10;7.60;99.90
15700;DHT22;7950;42.744;23.174;2023-05-07T01:04:39;7.60;99.90
15700;DHT22;7950;42.744;23.174;2023-05-07T01:07:08;7.60;99.90
15700;DHT22;7950;42.744;23.174;2023-05-07T01:09:37;7.60;99.90
15700;DHT22;7950;42.744;23.174;2023-05-07T01:12:33;7.70;99.90
15700;DHT22;7950;42.744;23.174;2023-05-07T01:15:04;7.70;99.90
15700;DHT22;7950;42.744;23.174;2023-05-07T01:17:34;7.60;99.90
15700;DHT22;7950;42.744;23.174;2023-05-07T01:20:05;7.60;99.90
15700;DHT22;7950;42.744;23.174;2023-05-07T01:22:38;7.50;99.90
15700;DHT22;7950;42.744;23.174;2023-05-07T01:25:07;7.50;99.90
15700;DHT22;7950;42.744;23.174;2023-05-07T01:28:01;7.50;99.90
15700;DHT22;7950;42.744;23.174;2023-05-07T01:30:29;7.50;99.90
15700;DHT22;7950;42.744;23.174;2023-05-07T01:33:01;7.50;99.90
15700;DHT22;7950;42.744;23.174;2023-05-07T01:35:39;7.50;99.90
15700;DHT22;7950;42.744;23.174;2023-05-07T01:38:12;7.50;99.90
15700;DHT22;7950;42.744;23.174;2023-05-07T01:40:41;7.60;99.90
15700;DHT22;7950;42.744;23.174;2023-05-07T01:43:10;7.50;99.90
15700;DHT22;7950;42.744;23.174;2023-05-07T01:45:40;7.50;99.90
15700;DHT22;7950;42.744;23.174;2023-05-07T01:48:10;7.40;99.90
15700;DHT22;7950;42.744;23.174;2023-05-07T01:50:41;7.30;99.90
15700;DHT22;7950;42.744;23.174;2023-05-07T01:53:12;7.30;99.90
15700;DHT22;7950;42.744;23.174;2023-05-07T01:55:44;7.30;99.90
15700;DHT22;7950;42.744;23.174;2023-05-07T01:58:13;7.20;99.90
15700;DHT22;7950;42.744;23.174;2023-05-07T02:00:41;7.30;99.90
15700;DHT22;7950;42.744;23.174;2023-05-07T02:03:10;7.30;99.90
15700;DHT22;7950;42.744;23.174;2023-05-07T02:05:38;7.20;99.90
15700;DHT22;7950;42.744;23.174;2023-05-07T02:08:07;7.20;99.90
15700;DHT22;7950;42.744;23.174;2023-05-07T02:10:37;7.20;99.90
15700;DHT22;7950;42.744;23.174;2023-05-07T02:13:05;7.20;99.90
15700;DHT22;7950;42.744;23.174;2023-05-07T02:15:35;7.20;99.90
15700;DHT22;7950;42.744;23.174;2023-05-07T02:18:05;7.10;99.90
15700;DHT22;7950;42.744;23.174;2023-05-07T02:20:35;7.00;99.90
15700;DHT22;7950;42.744;23.174;2023-05-07T02:23:03;7.00;99.90
15700;DHT22;7950;42.744;23.174;2023-05-07T02:25:32;7.00;99.90
15700;DHT22;7950;42.744;23.174;2023-05-07T02:28:02;7.00;99.90
15700;DHT22;7950;42.744;23.174;2023-05-07T02:30:31;6.90;99.90
15700;DHT22;7950;42.744;23.174;2023-05-07T02:33:00;6.80;99.90
15700;DHT22;7950;42.744;23.174;2023-05-07T02:35:29;6.80;99.90
15700;DHT22;7950;42.744;23.174;2023-05-07T02:38:02;6.80;99.90
15700;DHT22;7950;42.744;23.174;2023-05-07T02:40:31;6.80;99.90
15700;DHT22;7950;42.744;23.174;2023-05-07T02:43:06;6.80;99.90
15700;DHT22;7950;42.744;23.174;2023-05-07T02:45:35;6.80;99.90
15700;DHT22;7950;42.744;23.174;2023-05-07T02:48:09;6.80;99.90
15700;DHT22;7950;42.744;23.174;2023-05-07T02:50:38;6.80;99.90
15700;DHT22;7950;42.744;23.174;2023-05-07T02:53:06;6.70;99.90
15700;DHT22;7950;42.744;23.174;2023-05-07T02:55:35;6.70;99.90
15700;DHT22;7950;42.744;23.174;2023-05-07T02:58:03;6.70;99.90
15700;DHT22;7950;42.744;23.174;2023-05-07T03:00:33;6.70;99.90
15700;DHT22;7950;42.744;23.174;2023-05-07T03:03:02;6.60;99.90
15700;DHT22;7950;42.744;23.174;2023-05-07T03:05:31;6.60;99.90
15700;DHT22;7950;42.744;23.174;2023-05-07T03:07:59;6.60;99.90
15700;DHT22;7950;42.744;23.174;2023-05-07T03:10:28;6.70;99.90
15700;DHT22;7950;42.744;23.174;2023-05-07T03:12:56;6.60;99.90
15700;DHT22;7950;42.744;23.174;2023-05-07T03:15:25;6.60;99.90
15700;DHT22;7950;42.744;23.174;2023-05-07T03:17:55;6.60;99.90
15700;DHT22;7950;42.744;23.174;2023-05-07T03:20:23;6.70;99.90
15700;DHT22;7950;42.744;23.174;2023-05-07T03:22:52;6.70;99.90
15700;DHT22;7950;42.744;23.174;2023-05-07T03:25:21;6.80;99.90
15700;DHT22;7950;42.744;23.174;2023-05-07T03:27:49;6.80;99.90
15700;DHT22;7950;42.744;23.174;2023-05-07T03:30:18;6.80;99.90
15700;DHT22;7950;42.744;23.174;2023-05-07T03:32:47;6.80;99.90
15700;DHT22;7950;42.744;23.174;2023-05-07T03:35:17;6.80;99.90
15700;DHT22;7950;42.744;23.174;2023-05-07T03:37:45;6.80;99.90
15700;DHT22;7950;42.744;23.174;2023-05-07T03:40:14;6.90;99.90
15700;DHT22;7950;42.744;23.174;2023-05-07T03:42:43;6.90;99.90
15700;DHT22;7950;42.744;23.174;2023-05-07T03:45:11;7.00;99.90
15700;DHT22;7950;42.744;23.174;2023-05-07T03:47:40;7.00;99.90
15700;DHT22;7950;42.744;23.174;2023-05-07T03:50:09;7.00;99.90
15700;DHT22;7950;42.744;23.174;2023-05-07T03:52:40;7.10;99.90
15700;DHT22;7950;42.744;23.174;2023-05-07T03:55:09;7.10;99.90
15700;DHT22;7950;42.744;23.174;2023-05-07T03:57:37;7.20;99.90
15700;DHT22;7950;42.744;23.174;2023-05-07T04:00:07;7.20;99.90
15700;DHT22;7950;42.744;23.174;2023-05-07T04:02:36;7.30;99.90
15700;DHT22;7950;42.744;23.174;2023-05-07T04:08:25;7.50;99.90
15700;DHT22;7950;42.744;23.174;2023-05-07T04:10:57;7.60;99.90
15700;DHT22;7950;42.744;23.174;2023-05-07T04:13:27;7.80;99.90
15700;DHT22;7950;42.744;23.174;2023-05-07T04:15:56;8.00;99.90
15700;DHT22;7950;42.744;23.174;2023-05-07T04:18:27;8.10;99.90
15700;DHT22;7950;42.744;23.174;2023-05-07T04:20:56;8.20;99.90
15700;DHT22;7950;42.744;23.174;2023-05-07T04:23:25;8.30;99.90
15700;DHT22;7950;42.744;23.174;2023-05-07T04:25:54;8.40;99.90
15700;DHT22;7950;42.744;23.174;2023-05-07T04:28:23;8.50;99.90
15700;DHT22;7950;42.744;23.174;2023-05-07T04:30:52;8.70;99.90
15700;DHT22;7950;42.744;23.174;2023-05-07T04:33:21;8.80;99.90
15700;DHT22;7950;42.744;23.174;2023-05-07T04:35:49;8.90;99.90
15700;DHT22;7950;42.744;23.174;2023-05-07T04:38:18;9.10;99.90
15700;DHT22;7950;42.744;23.174;2023-05-07T04:40:48;9.20;99.90
15700;DHT22;7950;42.744;23.174;2023-05-07T04:43:16;9.40;99.90
15700;DHT22;7950;42.744;23.174;2023-05-07T04:45:45;9.60;99.90
15700;DHT22;7950;42.744;23.174;2023-05-07T04:48:14;9.70;99.90
15700;DHT22;7950;42.744;23.174;2023-05-07T04:50:43;9.90;99.90
15700;DHT22;7950;42.744;23.174;2023-05-07T04:53:11;10.10;99.90
15700;DHT22;7950;42.744;23.174;2023-05-07T04:55:40;10.30;99.90
15700;DHT22;7950;42.744;23.174;2023-05-07T04:58:10;10.50;99.90
15700;DHT22;7950;42.744;23.174;2023-05-07T05:00:39;10.60;99.90
15700;DHT22;7950;42.744;23.174;2023-05-07T05:03:09;10.80;99.90
15700;DHT22;7950;42.744;23.174;2023-05-07T05:05:38;11.00;99.90
15700;DHT22;7950;42.744;23.174;2023-05-07T05:08:06;11.30;99.90
15700;DHT22;7950;42.744;23.174;2023-05-07T05:10:35;11.50;99.90
15700;DHT22;7950;42.744;23.174;2023-05-07T05:13:03;11.70;99.90
15700;DHT22;7950;42.744;23.174;2023-05-07T05:15:33;11.90;99.90
15700;DHT22;7950;42.744;23.174;2023-05-07T05:18:02;12.10;99.90
15700;DHT22;7950;42.744;23.174;2023-05-07T05:20:31;12.20;99.90
15700;DHT22;7950;42.744;23.174;2023-05-07T05:23:00;12.40;99.90
15700;DHT22;7950;42.744;23.174;2023-05-07T05:25:28;12.60;99.90
15700;DHT22;7950;42.744;23.174;2023-05-07T05:27:57;12.70;99.90
15700;DHT22;7950;42.744;23.174;2023-05-07T05:30:26;12.90;99.90
15700;DHT22;7950;42.744;23.174;2023-05-07T05:32:55;13.10;99.90
15700;DHT22;7950;42.744;23.174;2023-05-07T05:35:24;13.20;99.90
15700;DHT22;7950;42.744;23.174;2023-05-07T05:37:52;13.30;99.90
15700;DHT22;7950;42.744;23.174;2023-05-07T05:40:21;13.40;99.90
15700;DHT22;7950;42.744;23.174;2023-05-07T05:42:50;13.50;99.90
15700;DHT22;7950;42.744;23.174;2023-05-07T05:45:18;13.50;99.90
15700;DHT22;7950;42.744;23.174;2023-05-07T05:47:47;13.50;99.90
15700;DHT22;7950;42.744;23.174;2023-05-07T05:50:17;13.60;99.90
15700;DHT22;7950;42.744;23.174;2023-05-07T05:52:50;13.70;99.90
15700;DHT22;7950;42.744;23.174;2023-05-07T05:55:18;13.70;99.90
15700;DHT22;7950;42.744;23.174;2023-05-07T05:57:47;13.80;99.90
15700;DHT22;7950;42.744;23.174;2023-05-07T06:00:17;14.10;99.90
15700;DHT22;7950;42.744;23.174;2023-05-07T06:02:45;14.20;99.90
15700;DHT22;7950;42.744;23.174;2023-05-07T06:05:14;14.30;99.90
15700;DHT22;7950;42.744;23.174;2023-05-07T06:07:49;14.40;99.90
15700;DHT22;7950;42.744;23.174;2023-05-07T06:10:18;14.40;99.90
15700;DHT22;7950;42.744;23.174;2023-05-07T06:12:46;14.50;99.90
15700;DHT22;7950;42.744;23.174;2023-05-07T06:15:33;14.50;99.90
15700;DHT22;7950;42.744;23.174;2023-05-07T06:18:02;14.60;99.90
15700;DHT22;7950;42.744;23.174;2023-05-07T06:20:30;14.80;99.90
15700;DHT22;7950;42.744;23.174;2023-05-07T06:23:00;15.00;99.90
15700;DHT22;7950;42.744;23.174;2023-05-07T06:25:29;15.10;99.90
15700;DHT22;7950;42.744;23.174;2023-05-07T06:27:57;15.30;99.90
15700;DHT22;7950;42.744;23.174;2023-05-07T06:30:26;15.30;99.90
15700;DHT22;7950;42.744;23.174;2023-05-07T06:32:55;15.30;99.90
15700;DHT22;7950;42.744;23.174;2023-05-07T06:35:23;15.40;99.90
15700;DHT22;7950;42.744;23.174;2023-05-07T06:37:52;15.50;99.90
15700;DHT22;7950;42.744;23.174;2023-05-07T06:40:21;15.60;99.90
15700;DHT22;7950;42.744;23.174;2023-05-07T06:42:50;15.70;99.90
15700;DHT22;7950;42.744;23.174;2023-05-07T06:45:34;15.90;99.90
15700;DHT22;7950;42.744;23.174;2023-05-07T06:48:03;16.00;99.90
15700;DHT22;7950;42.744;23.174;2023-05-07T06:50:32;16.20;99.90
15700;DHT22;7950;42.744;23.174;2023-05-07T06:53:05;16.30;99.90
15700;DHT22;7950;42.744;23.174;2023-05-07T06:55:35;16.30;99.90
15700;DHT22;7950;42.744;23.174;2023-05-07T06:58:05;16.20;99.90
15700;DHT22;7950;42.744;23.174;2023-05-07T07:00:33;16.20;99.90
15700;DHT22;7950;42.744;23.174;2023-05-07T07:03:27;16.20;99.90
15700;DHT22;7950;42.744;23.174;2023-05-07T07:05:55;16.40;99.90
15700;DHT22;7950;42.744;23.174;2023-05-07T07:08:24;16.40;99.90
15700;DHT22;7950;42.744;23.174;2023-05-07T07:10:54;16.50;99.90
15700;DHT22;7950;42.744;23.174;2023-05-07T07:13:22;16.70;99.90
15700;DHT22;7950;42.744;23.174;2023-05-07T07:15:51;16.90;99.90
15700;DHT22;7950;42.744;23.174;2023-05-07T07:18:20;16.90;99.90
15700;DHT22;7950;42.744;23.174;2023-05-07T07:20:49;16.90;99.90
15700;DHT22;7950;42.744;23.174;2023-05-07T07:23:17;17.20;99.90
15700;DHT22;7950;42.744;23.174;2023-05-07T07:25:46;17.50;99.90
15700;DHT22;7950;42.744;23.174;2023-05-07T07:28:17;17.70;99.90
15700;DHT22;7950;42.744;23.174;2023-05-07T07:30:45;17.90;99.90
15700;DHT22;7950;42.744;23.174;2023-05-07T07:33:14;18.10;99.90
15700;DHT22;7950;42.744;23.174;2023-05-07T07:35:43;18.20;99.90
15700;DHT22;7950;42.744;23.174;2023-05-07T07:38:36;18.10;99.90
15700;DHT22;7950;42.744;23.174;2023-05-07T07:41:04;18.30;99.90
15700;DHT22;7950;42.744;23.174;2023-05-07T07:43:34;18.30;99.90
15700;DHT22;7950;42.744;23.174;2023-05-07T07:46:03;18.30;99.90
15700;DHT22;7950;42.744;23.174;2023-05-07T07:48:32;18.50;99.90
15700;DHT22;7950;42.744;23.174;2023-05-07T07:51:02;18.70;99.90
15700;DHT22;7950;42.744;23.174;2023-05-07T07:53:31;18.90;99.90
15700;DHT22;7950;42.744;23.174;2023-05-07T07:56:00;19.10;99.90
15700;DHT22;7950;42.744;23.174;2023-05-07T07:58:31;19.20;99.90
15700;DHT22;7950;42.744;23.174;2023-05-07T08:01:03;19.30;99.90
15700;DHT22;7950;42.744;23.174;2023-05-07T08:03:32;19.50;99.90
15700;DHT22;7950;42.744;23.174;2023-05-07T08:06:00;19.50;99.90
15700;DHT22;7950;42.744;23.174;2023-05-07T08:08:29;19.40;99.90
15700;DHT22;7950;42.744;23.174;2023-05-07T08:10:58;19.40;99.90
15700;DHT22;7950;42.744;23.174;2023-05-07T08:13:26;19.50;99.90
15700;DHT22;7950;42.744;23.174;2023-05-07T08:15:55;19.70;99.90
15700;DHT22;7950;42.744;23.174;2023-05-07T08:18:25;19.80;99.90
15700;DHT22;7950;42.744;23.174;2023-05-07T08:20:55;20.00;99.90
15700;DHT22;7950;42.744;23.174;2023-05-07T08:23:24;20.00;98.60
15700;DHT22;7950;42.744;23.174;2023-05-07T08:25:52;20.10;99.90
15700;DHT22;7950;42.744;23.174;2023-05-07T08:28:21;20.10;99.90
15700;DHT22;7950;42.744;23.174;2023-05-07T08:30:51;20.30;97.10
15700;DHT22;7950;42.744;23.174;2023-05-07T08:33:20;20.30;97.40
15700;DHT22;7950;42.744;23.174;2023-05-07T08:35:50;20.50;92.80
15700;DHT22;7950;42.744;23.174;2023-05-07T08:38:19;20.40;91.30
15700;DHT22;7950;42.744;23.174;2023-05-07T08:40:47;20.30;96.90
15700;DHT22;7950;42.744;23.174;2023-05-07T08:43:17;20.50;96.70
15700;DHT22;7950;42.744;23.174;2023-05-07T08:45:49;20.60;96.20
15700;DHT22;7950;42.744;23.174;2023-05-07T08:48:47;20.80;96.80
15700;DHT22;7950;42.744;23.174;2023-05-07T08:51:19;21.10;96.10
15700;DHT22;7950;42.744;23.174;2023-05-07T08:53:49;21.20;96.90
15700;DHT22;7950;42.744;23.174;2023-05-07T08:56:18;21.40;93.90
15700;DHT22;7950;42.744;23.174;2023-05-07T08:58:48;21.50;94.00
15700;DHT22;7950;42.744;23.174;2023-05-07T09:01:17;21.70;94.80
15700;DHT22;7950;42.744;23.174;2023-05-07T09:03:46;21.80;91.00
15700;DHT22;7950;42.744;23.174;2023-05-07T09:06:17;21.90;89.20
15700;DHT22;7950;42.744;23.174;2023-05-07T09:08:49;21.90;87.40
15700;DHT22;7950;42.744;23.174;2023-05-07T09:11:20;22.00;88.90
15700;DHT22;7950;42.744;23.174;2023-05-07T09:13:53;22.10;81.60
15700;DHT22;7950;42.744;23.174;2023-05-07T09:16:24;22.10;80.50
15700;DHT22;7950;42.744;23.174;2023-05-07T09:18:54;22.10;82.20
15700;DHT22;7950;42.744;23.174;2023-05-07T09:21:24;22.20;80.70
15700;DHT22;7950;42.744;23.174;2023-05-07T09:23:55;22.30;82.90
15700;DHT22;7950;42.744;23.174;2023-05-07T09:26:25;22.50;81.70
15700;DHT22;7950;42.744;23.174;2023-05-07T09:28:55;22.70;79.50
15700;DHT22;7950;42.744;23.174;2023-05-07T09:31:23;22.70;73.00
15700;DHT22;7950;42.744;23.174;2023-05-07T09:33:53;22.50;70.70
15700;DHT22;7950;42.744;23.174;2023-05-07T09:36:24;22.30;70.20
15700;DHT22;7950;42.744;23.174;2023-05-07T09:38:52;22.10;69.40
15700;DHT22;7950;42.744;23.174;2023-05-07T09:41:21;21.90;71.00
15700;DHT22;7950;42.744;23.174;2023-05-07T09:43:54;22.00;70.80
15700;DHT22;7950;42.744;23.174;2023-05-07T09:46:27;22.10;69.70
15700;DHT22;7950;42.744;23.174;2023-05-07T09:48:58;22.20;70.30
15700;DHT22;7950;42.744;23.174;2023-05-07T09:54:37;22.20;67.10
15700;DHT22;7950;42.744;23.174;2023-05-07T09:57:07;22.10;68.70
15700;DHT22;7950;42.744;23.174;2023-05-07T09:59:38;22.30;68.00
15700;DHT22;7950;42.744;23.174;2023-05-07T10:02:11;22.30;67.70
15700;DHT22;7950;42.744;23.174;2023-05-07T10:04:42;22.40;64.00
15700;DHT22;7950;42.744;23.174;2023-05-07T10:07:21;22.50;66.50
15700;DHT22;7950;42.744;23.174;2023-05-07T10:09:51;22.70;64.00
15700;DHT22;7950;42.744;23.174;2023-05-07T10:12:21;22.90;63.80
15700;DHT22;7950;42.744;23.174;2023-05-07T10:14:53;23.00;62.00
15700;DHT22;7950;42.744;23.174;2023-05-07T10:17:23;23.00;62.80
15700;DHT22;7950;42.744;23.174;2023-05-07T10:19:53;23.00;60.50
15700;DHT22;7950;42.744;23.174;2023-05-07T10:22:25;23.10;62.90
15700;DHT22;7950;42.744;23.174;2023-05-07T10:24:56;23.20;61.60
15700;DHT22;7950;42.744;23.174;2023-05-07T10:27:27;23.20;60.90
15700;DHT22;7950;42.744;23.174;2023-05-07T10:30:04;23.30;59.20
15700;DHT22;7950;42.744;23.174;2023-05-07T10:32:42;23.40;60.00
15700;DHT22;7950;42.744;23.174;2023-05-07T10:35:17;23.40;60.10
15700;DHT22;7950;42.744;23.174;2023-05-07T10:38:17;23.50;59.80
15700;DHT22;7950;42.744;23.174;2023-05-07T10:40:46;23.60;58.30
15700;DHT22;7950;42.744;23.174;2023-05-07T10:43:14;23.50;56.60
15700;DHT22;7950;42.744;23.174;2023-05-07T10:46:13;23.20;56.10
15700;DHT22;7950;42.744;23.174;2023-05-07T10:49:10;23.20;56.80
15700;DHT22;7950;42.744;23.174;2023-05-07T10:51:39;23.20;58.80
15700;DHT22;7950;42.744;23.174;2023-05-07T10:54:22;23.40;57.80
15700;DHT22;7950;42.744;23.174;2023-05-07T10:56:51;23.60;60.60
15700;DHT22;7950;42.744;23.174;2023-05-07T10:59:45;23.80;58.90
15700;DHT22;7950;42.744;23.174;2023-05-07T11:02:13;23.90;59.50
15700;DHT22;7950;42.744;23.174;2023-05-07T11:04:42;24.10;57.00
15700;DHT22;7950;42.744;23.174;2023-05-07T11:07:29;24.20;56.40
15700;DHT22;7950;42.744;23.174;2023-05-07T11:10:01;24.20;55.80
15700;DHT22;7950;42.744;23.174;2023-05-07T11:12:54;24.10;55.00
15700;DHT22;7950;42.744;23.174;2023-05-07T11:15:37;23.90;53.80
15700;DHT22;7950;42.744;23.174;2023-05-07T11:18:09;23.70;55.20
15700;DHT22;7950;42.744;23.174;2023-05-07T11:23:58;23.50;56.80
15700;DHT22;7950;42.744;23.174;2023-05-07T11:26:30;23.50;54.50
15700;DHT22;7950;42.744;23.174;2023-05-07T11:29:15;23.40;54.90
15700;DHT22;7950;42.744;23.174;2023-05-07T11:31:51;23.30;54.20
15700;DHT22;7950;42.744;23.174;2023-05-07T11:34:22;23.40;56.60
15700;DHT22;7950;42.744;23.174;2023-05-07T11:36:52;23.50;56.90
15700;DHT22;7950;42.744;23.174;2023-05-07T11:39:29;23.50;55.50
15700;DHT22;7950;42.744;23.174;2023-05-07T11:42:05;23.60;56.00
15700;DHT22;7950;42.744;23.174;2023-05-07T11:44:45;23.50;54.60
15700;DHT22;7950;42.744;23.174;2023-05-07T11:47:17;23.60;52.50
15700;DHT22;7950;42.744;23.174;2023-05-07T11:49:47;23.50;52.60
15700;DHT22;7950;42.744;23.174;2023-05-07T11:52:17;23.50;53.00
15700;DHT22;7950;42.744;23.174;2023-05-07T11:54:49;23.50;53.10
15700;DHT22;7950;42.744;23.174;2023-05-07T11:57:19;23.50;53.30
15700;DHT22;7950;42.744;23.174;2023-05-07T11:59:48;23.60;52.60
15700;DHT22;7950;42.744;23.174;2023-05-07T12:02:45;23.70;53.50
15700;DHT22;7950;42.744;23.174;2023-05-07T12:05:13;23.80;54.60
15700;DHT22;7950;42.744;23.174;2023-05-07T12:07:42;23.90;53.80
15700;DHT22;7950;42.744;23.174;2023-05-07T12:10:11;23.90;52.90
15700;DHT22;7950;42.744;23.174;2023-05-07T12:12:47;24.00;52.90
15700;DHT22;7950;42.744;23.174;2023-05-07T12:15:16;24.10;52.40
15700;DHT22;7950;42.744;23.174;2023-05-07T12:17:45;24.10;52.00
15700;DHT22;7950;42.744;23.174;2023-05-07T12:20:13;24.00;51.30
15700;DHT22;7950;42.744;23.174;2023-05-07T12:22:42;24.00;51.90
15700;DHT22;7950;42.744;23.174;2023-05-07T12:25:11;24.00;51.80
15700;DHT22;7950;42.744;23.174;2023-05-07T12:27:42;24.00;52.10
15700;DHT22;7950;42.744;23.174;2023-05-07T12:30:13;24.00;51.80
15700;DHT22;7950;42.744;23.174;2023-05-07T12:32:44;23.90;51.80
15700;DHT22;7950;42.744;23.174;2023-05-07T12:35:13;23.70;52.20
15700;DHT22;7950;42.744;23.174;2023-05-07T12:37:41;23.70;52.80
15700;DHT22;7950;42.744;23.174;2023-05-07T12:40:11;23.70;51.80
15700;DHT22;7950;42.744;23.174;2023-05-07T12:42:40;23.70;53.00
15700;DHT22;7950;42.744;23.174;2023-05-07T12:45:09;23.60;52.40
15700;DHT22;7950;42.744;23.174;2023-05-07T12:47:43;23.20;52.50
15700;DHT22;7950;42.744;23.174;2023-05-07T12:50:13;23.00;52.50
15700;DHT22;7950;42.744;23.174;2023-05-07T12:52:43;23.00;53.70
15700;DHT22;7950;42.744;23.174;2023-05-07T12:55:14;23.10;54.00
15700;DHT22;7950;42.744;23.174;2023-05-07T12:57:47;23.20;53.40
15700;DHT22;7950;42.744;23.174;2023-05-07T13:00:32;23.20;53.20
15700;DHT22;7950;42.744;23.174;2023-05-07T13:03:02;23.30;53.10
15700;DHT22;7950;42.744;23.174;2023-05-07T13:05:31;23.30;52.60
15700;DHT22;7950;42.744;23.174;2023-05-07T13:08:00;23.50;54.10
15700;DHT22;7950;42.744;23.174;2023-05-07T13:10:29;23.70;55.00
15700;DHT22;7950;42.744;23.174;2023-05-07T13:12:57;23.90;53.30
15700;DHT22;7950;42.744;23.174;2023-05-07T13:15:28;24.00;55.10
15700;DHT22;7950;42.744;23.174;2023-05-07T13:17:56;24.30;53.30
15700;DHT22;7950;42.744;23.174;2023-05-07T13:20:25;24.30;52.10
15700;DHT22;7950;42.744;23.174;2023-05-07T13:22:53;24.10;52.50
15700;DHT22;7950;42.744;23.174;2023-05-07T13:25:22;23.90;52.40
15700;DHT22;7950;42.744;23.174;2023-05-07T13:27:51;23.70;52.80
15700;DHT22;7950;42.744;23.174;2023-05-07T13:30:37;23.80;53.20
15700;DHT22;7950;42.744;23.174;2023-05-07T13:33:05;23.80;53.20
15700;DHT22;7950;42.744;23.174;2023-05-07T13:35:34;23.70;54.00
15700;DHT22;7950;42.744;23.174;2023-05-07T13:38:03;23.50;54.20
15700;DHT22;7950;42.744;23.174;2023-05-07T13:40:32;23.40;54.10
15700;DHT22;7950;42.744;23.174;2023-05-07T13:43:00;23.50;55.00
15700;DHT22;7950;42.744;23.174;2023-05-07T13:45:29;23.50;55.30
15700;DHT22;7950;42.744;23.174;2023-05-07T13:47:59;23.40;53.90
15700;DHT22;7950;42.744;23.174;2023-05-07T13:50:28;23.60;55.10
15700;DHT22;7950;42.744;23.174;2023-05-07T13:52:57;23.80;54.80
15700;DHT22;7950;42.744;23.174;2023-05-07T13:55:25;23.80;54.50
15700;DHT22;7950;42.744;23.174;2023-05-07T13:57:57;23.70;53.30
15700;DHT22;7950;42.744;23.174;2023-05-07T14:00:27;23.60;53.60
15700;DHT22;7950;42.744;23.174;2023-05-07T14:02:58;23.70;53.80
15700;DHT22;7950;42.744;23.174;2023-05-07T14:05:27;23.70;53.30
15700;DHT22;7950;42.744;23.174;2023-05-07T14:07:57;23.70;52.30
15700;DHT22;7950;42.744;23.174;2023-05-07T14:10:26;23.70;53.00
15700;DHT22;7950;42.744;23.174;2023-05-07T14:12:55;23.60;51.70
15700;DHT22;7950;42.744;23.174;2023-05-07T14:15:23;23.60;52.40
15700;DHT22;7950;42.744;23.174;2023-05-07T14:17:52;23.50;52.80
15700;DHT22;7950;42.744;23.174;2023-05-07T14:20:22;23.40;53.40
15700;DHT22;7950;42.744;23.174;2023-05-07T14:22:50;23.30;53.60
15700;DHT22;7950;42.744;23.174;2023-05-07T14:25:19;23.20;53.40
15700;DHT22;7950;42.744;23.174;2023-05-07T14:27:47;23.20;54.10
15700;DHT22;7950;42.744;23.174;2023-05-07T14:30:16;23.20;54.60
15700;DHT22;7950;42.744;23.174;2023-05-07T14:32:44;23.30;54.50
15700;DHT22;7950;42.744;23.174;2023-05-07T14:35:13;23.40;53.30
15700;DHT22;7950;42.744;23.174;2023-05-07T14:37:51;23.50;53.60
15700;DHT22;7950;42.744;23.174;2023-05-07T14:40:19;23.60;54.00
15700;DHT22;7950;42.744;23.174;2023-05-07T14:42:48;23.70;53.60
15700;DHT22;7950;42.744;23.174;2023-05-07T14:45:16;23.80;53.30
15700;DHT22;7950;42.744;23.174;2023-05-07T14:47:45;23.80;53.20
15700;DHT22;7950;42.744;23.174;2023-05-07T14:50:13;23.90;53.20
15700;DHT22;7950;42.744;23.174;2023-05-07T14:52:42;23.90;52.90
15700;DHT22;7950;42.744;23.174;2023-05-07T14:55:12;23.90;53.90
15700;DHT22;7950;42.744;23.174;2023-05-07T14:57:40;23.90;53.10
15700;DHT22;7950;42.744;23.174;2023-05-07T15:00:10;23.80;52.70
15700;DHT22;7950;42.744;23.174;2023-05-07T15:02:39;23.70;53.30
15700;DHT22;7950;42.744;23.174;2023-05-07T15:05:08;23.70;53.40
15700;DHT22;7950;42.744;23.174;2023-05-07T15:07:37;23.70;53.40
15700;DHT22;7950;42.744;23.174;2023-05-07T15:10:06;23.70;53.90
15700;DHT22;7950;42.744;23.174;2023-05-07T15:12:37;23.80;53.60
15700;DHT22;7950;42.744;23.174;2023-05-07T15:15:06;23.80;53.40
15700;DHT22;7950;42.744;23.174;2023-05-07T15:17:36;23.90;53.20
15700;DHT22;7950;42.744;23.174;2023-05-07T15:20:06;23.90;53.50
15700;DHT22;7950;42.744;23.174;2023-05-07T15:22:35;23.80;54.00
15700;DHT22;7950;42.744;23.174;2023-05-07T15:25:05;23.90;53.50
15700;DHT22;7950;42.744;23.174;2023-05-07T15:27:37;23.90;52.80
15700;DHT22;7950;42.744;23.174;2023-05-07T15:30:06;24.00;52.70
15700;DHT22;7950;42.744;23.174;2023-05-07T15:32:37;24.00;53.40
15700;DHT22;7950;42.744;23.174;2023-05-07T15:35:07;23.90;54.20
15700;DHT22;7950;42.744;23.174;2023-05-07T15:37:37;23.90;53.30
15700;DHT22;7950;42.744;23.174;2023-05-07T15:40:07;24.00;53.80
15700;DHT22;7950;42.744;23.174;2023-05-07T15:42:38;24.00;53.30
15700;DHT22;7950;42.744;23.174;2023-05-07T15:45:08;24.10;53.80
15700;DHT22;7950;42.744;23.174;2023-05-07T15:47:38;24.10;53.80
15700;DHT22;7950;42.744;23.174;2023-05-07T15:50:07;24.10;53.80
15700;DHT22;7950;42.744;23.174;2023-05-07T15:52:36;24.10;53.30
15700;DHT22;7950;42.744;23.174;2023-05-07T15:55:06;24.00;53.60
15700;DHT22;7950;42.744;23.174;2023-05-07T15:57:35;24.00;53.90
15700;DHT22;7950;42.744;23.174;2023-05-07T16:00:06;23.90;52.90
15700;DHT22;7950;42.744;23.174;2023-05-07T16:02:38;23.90;52.80
15700;DHT22;7950;42.744;23.174;2023-05-07T16:05:07;23.80;53.40
15700;DHT22;7950;42.744;23.174;2023-05-07T16:07:38;23.70;53.60